sensor_id;sensor_type;location;lat;lon;timestamp;pressure;altitude;pressure_sealevel;temperature;humidity
52927;BME280;40783;49.710;8.842;2023-03-14T00:01:50;97212.00;;;9.35;100.00
52927;BME280;40783;49.710;8.842;2023-03-14T00:04:18;97200.47;;;9.28;100.00
52927;BME280;40783;49.710;8.842;2023-03-14T00:06:45;97214.66;;;9.35;100.00
52927;BME280;40783;49.710;8.842;2023-03-14T00:09:12;97217.31;;;9.35;100.00
52927;BME280;40783;49.710;8.842;2023-03-14T00:11:37;97215.28;;;9.38;100.00
52927;BME280;40783;49.710;8.842;2023-03-14T00:14:02;97218.50;;;9.26;100.00
52927;BME280;40783;49.710;8.842;2023-03-14T00:16:27;97225.50;;;9.27;100.00
52927;BME280;40783;49.710;8.842;2023-03-14T00:18:53;97223.44;;;9.29;100.00
52927;BME280;40783;49.710;8.842;2023-03-14T00:21:18;97222.19;;;9.25;100.00
52927;BME280;40783;49.710;8.842;2023-03-14T00:23:43;97224.47;;;9.28;100.00
52927;BME280;40783;49.710;8.842;2023-03-14T00:26:12;97222.00;;;9.27;100.00
52927;BME280;40783;49.710;8.842;2023-03-14T00:28:38;97232.06;;;9.31;100.00
52927;BME280;40783;49.710;8.842;2023-03-14T00:31:07;97226.75;;;9.31;100.00
52927;BME280;40783;49.710;8.842;2023-03-14T00:33:33;97221.41;;;9.31;100.00
52927;BME280;40783;49.710;8.842;2023-03-14T00:36:08;97219.75;;;9.30;100.00
52927;BME280;40783;49.710;8.842;2023-03-14T00:38:34;97230.44;;;9.30;100.00
52927;BME280;40783;49.710;8.842;2023-03-14T00:41:01;97226.75;;;9.31;100.00
52927;BME280;40783;49.710;8.842;2023-03-14T00:43:27;97226.94;;;9.30;100.00
52927;BME280;40783;49.710;8.842;2023-03-14T00:45:52;97236.16;;;9.27;100.00
52927;BME280;40783;49.710;8.842;2023-03-14T00:48:20;97218.13;;;9.29;100.00
52927;BME280;40783;49.710;8.842;2023-03-14T00:50:45;97223.84;;;9.26;100.00
52927;BME280;40783;49.710;8.842;2023-03-14T00:53:13;97219.13;;;9.28;100.00
52927;BME280;40783;49.710;8.842;2023-03-14T00:55:39;97215.22;;;9.31;100.00
52927;BME280;40783;49.710;8.842;2023-03-14T00:58:04;97214.81;;;9.27;100.00
52927;BME280;40783;49.710;8.842;2023-03-14T01:00:32;97213.59;;;9.30;100.00
52927;BME280;40783;49.710;8.842;2023-03-14T01:02:57;97218.13;;;9.29;100.00
52927;BME280;40783;49.710;8.842;2023-03-14T01:05:23;97221.81;;;9.28;100.00
52927;BME280;40783;49.710;8.842;2023-03-14T01:07:48;97217.06;;;9.24;100.00
52927;BME280;40783;49.710;8.842;2023-03-14T01:10:13;97218.13;;;9.29;100.00
52927;BME280;40783;49.710;8.842;2023-03-14T01:12:39;97234.13;;;9.29;100.00
52927;BME280;40783;49.710;8.842;2023-03-14T01:15:07;97227.13;;;9.28;100.00
52927;BME280;40783;49.710;8.842;2023-03-14T01:17:34;97222.81;;;9.27;100.00
52927;BME280;40783;49.710;8.842;2023-03-14T01:20:03;97224.69;;;9.27;100.00
52927;BME280;40783;49.710;8.842;2023-03-14T01:22:29;97239.03;;;9.26;100.00
52927;BME280;40783;49.710;8.842;2023-03-14T01:24:54;97232.47;;;9.28;100.00
52927;BME280;40783;49.710;8.842;2023-03-14T01:27:20;97225.94;;;9.38;100.00
52927;BME280;40783;49.710;8.842;2023-03-14T01:29:45;97212.00;;;9.35;100.00
52927;BME280;40783;49.710;8.842;2023-03-14T01:32:12;97196.63;;;9.38;100.00
52927;BME280;40783;49.710;8.842;2023-03-14T01:34:37;97193.94;;;9.38;100.00
52927;BME280;40783;49.710;8.842;2023-03-14T01:37:05;97204.63;;;9.38;100.00
52927;BME280;40783;49.710;8.842;2023-03-14T01:39:32;97193.16;;;9.44;100.00
52927;BME280;40783;49.710;8.842;2023-03-14T01:42:00;97186.97;;;9.37;100.00
52927;BME280;40783;49.710;8.842;2023-03-14T01:44:44;97187.19;;;9.42;100.00
52927;BME280;40783;49.710;8.842;2023-03-14T01:47:12;97181.63;;;9.37;100.00
52927;BME280;40783;49.710;8.842;2023-03-14T01:49:40;97184.47;;;9.35;100.00
52927;BME280;40783;49.710;8.842;2023-03-14T01:52:07;97184.53;;;9.42;100.00
52927;BME280;40783;49.710;8.842;2023-03-14T01:54:51;97169.75;;;9.46;100.00
52927;BME280;40783;49.710;8.842;2023-03-14T01:57:20;97176.75;;;9.47;100.00
52927;BME280;40783;49.710;8.842;2023-03-14T02:00:06;97174.69;;;9.49;100.00
52927;BME280;40783;49.710;8.842;2023-03-14T02:02:39;97165.06;;;9.48;100.00
52927;BME280;40783;49.710;8.842;2023-03-14T02:05:04;97163.41;;;9.47;100.00
52927;BME280;40783;49.710;8.842;2023-03-14T02:07:34;97146.78;;;9.45;100.00
52927;BME280;40783;49.710;8.842;2023-03-14T02:10:01;97139.41;;;9.47;100.00
52927;BME280;40783;49.710;8.842;2023-03-14T02:12:29;97121.75;;;9.46;100.00
52927;BME280;40783;49.710;8.842;2023-03-14T02:14:55;97120.69;;;9.40;100.00
52927;BME280;40783;49.710;8.842;2023-03-14T02:17:20;97127.47;;;9.43;100.00
52927;BME280;40783;49.710;8.842;2023-03-14T02:22:35;97127.25;;;9.44;100.00
52927;BME280;40783;49.710;8.842;2023-03-14T02:27:41;97113.28;;;9.35;100.00
52927;BME280;40783;49.710;8.842;2023-03-14T02:30:15;97120.50;;;9.42;100.00
52927;BME280;40783;49.710;8.842;2023-03-14T02:32:46;97114.75;;;9.45;100.00
52927;BME280;40783;49.710;8.842;2023-03-14T02:35:13;97109.41;;;9.45;100.00
52927;BME280;40783;49.710;8.842;2023-03-14T02:37:41;97107.38;;;9.47;100.00
52927;BME280;40783;49.710;8.842;2023-03-14T02:40:08;97111.88;;;9.46;100.00
52927;BME280;40783;49.710;8.842;2023-03-14T02:42:34;97112.72;;;9.47;100.00
52927;BME280;40783;49.710;8.842;2023-03-14T02:47:30;97107.56;;;9.45;100.00
52927;BME280;40783;49.710;8.842;2023-03-14T02:49:59;97101.25;;;9.53;100.00
52927;BME280;40783;49.710;8.842;2023-03-14T02:52:26;97092.56;;;9.44;100.00
52927;BME280;40783;49.710;8.842;2023-03-14T02:54:54;97099.59;;;9.52;100.00
52927;BME280;40783;49.710;8.842;2023-03-14T02:57:19;97094.25;;;9.52;100.00
52927;BME280;40783;49.710;8.842;2023-03-14T02:59:44;97093.00;;;9.48;100.00
52927;BME280;40783;49.710;8.842;2023-03-14T03:02:09;97100.00;;;9.49;100.00
52927;BME280;40783;49.710;8.842;2023-03-14T03:04:35;97103.69;;;9.48;100.00
52927;BME280;40783;49.710;8.842;2023-03-14T03:07:02;97093.00;;;9.48;100.00
52927;BME280;40783;49.710;8.842;2023-03-14T03:09:30;97086.84;;;9.47;100.00
52927;BME280;40783;49.710;8.842;2023-03-14T03:11:57;97097.09;;;9.44;100.00
52927;BME280;40783;49.710;8.842;2023-03-14T03:14:22;97084.38;;;9.46;100.00
52927;BME280;40783;49.710;8.842;2023-03-14T03:16:50;97079.06;;;9.46;100.00
52927;BME280;40783;49.710;8.842;2023-03-14T03:19:18;97070.03;;;9.47;100.00
52927;BME280;40783;49.710;8.842;2023-03-14T03:21:45;97075.75;;;9.44;100.00
52927;BME280;40783;49.710;8.842;2023-03-14T03:24:11;97082.31;;;9.41;100.00
52927;BME280;40783;49.710;8.842;2023-03-14T03:26:38;97070.00;;;9.40;100.00
52927;BME280;40783;49.710;8.842;2023-03-14T03:29:03;97065.91;;;9.38;100.00
52927;BME280;40783;49.710;8.842;2023-03-14T03:31:30;97063.41;;;9.36;100.00
52927;BME280;40783;49.710;8.842;2023-03-14T03:33:56;97053.16;;;9.26;100.00
52927;BME280;40783;49.710;8.842;2023-03-14T03:36:22;97037.16;;;9.26;100.00
52927;BME280;40783;49.710;8.842;2023-03-14T03:38:47;97045.75;;;9.28;100.00
52927;BME280;40783;49.710;8.842;2023-03-14T03:41:13;97042.47;;;9.26;100.00
52927;BME280;40783;49.710;8.842;2023-03-14T03:43:38;97033.03;;;9.24;100.00
52927;BME280;40783;49.710;8.842;2023-03-14T03:46:04;97021.53;;;9.23;100.00
52927;BME280;40783;49.710;8.842;2023-03-14T03:48:30;97022.34;;;9.17;100.00
52927;BME280;40783;49.710;8.842;2023-03-14T03:50:57;97020.31;;;9.19;100.00
52927;BME280;40783;49.710;8.842;2023-03-14T03:53:22;97017.41;;;9.14;100.00
52927;BME280;40783;49.710;8.842;2023-03-14T03:55:50;97014.56;;;9.15;100.00
52927;BME280;40783;49.710;8.842;2023-03-14T03:58:15;97008.00;;;9.11;100.00
52927;BME280;40783;49.710;8.842;2023-03-14T04:00:40;97005.50;;;9.10;100.00
52927;BME280;40783;49.710;8.842;2023-03-14T04:03:06;97013.28;;;9.04;100.00
52927;BME280;40783;49.710;8.842;2023-03-14T04:05:31;97016.97;;;9.03;100.00
52927;BME280;40783;49.710;8.842;2023-03-14T04:07:56;97032.97;;;9.03;100.00
52927;BME280;40783;49.710;8.842;2023-03-14T04:10:24;97018.81;;;8.96;100.00
52927;BME280;40783;49.710;8.842;2023-03-14T04:12:52;97018.22;;;8.94;100.00
52927;BME280;40783;49.710;8.842;2023-03-14T04:15:17;97013.28;;;8.91;100.00
52927;BME280;40783;49.710;8.842;2023-03-14T04:17:47;97011.63;;;8.90;100.00
52927;BME280;40783;49.710;8.842;2023-03-14T04:20:12;97013.06;;;8.93;100.00
52927;BME280;40783;49.710;8.842;2023-03-14T04:22:38;97020.66;;;8.89;100.00
52927;BME280;40783;49.710;8.842;2023-03-14T04:25:03;97013.66;;;8.88;100.00
52927;BME280;40783;49.710;8.842;2023-03-14T04:27:31;97014.91;;;8.92;100.00
52927;BME280;40783;49.710;8.842;2023-03-14T04:29:56;97011.63;;;8.90;100.00
52927;BME280;40783;49.710;8.842;2023-03-14T04:32:21;97019.84;;;8.95;100.00
52927;BME280;40783;49.710;8.842;2023-03-14T04:34:46;97012.06;;;9.00;100.00
52927;BME280;40783;49.710;8.842;2023-03-14T04:37:12;97026.22;;;9.08;100.00
52927;BME280;40783;49.710;8.842;2023-03-14T04:39:37;97021.72;;;9.15;100.00
52927;BME280;40783;49.710;8.842;2023-03-14T04:42:02;97011.28;;;9.13;100.00
52927;BME280;40783;49.710;8.842;2023-03-14T04:44:27;97007.38;;;9.16;100.00
52927;BME280;40783;49.710;8.842;2023-03-14T04:46:53;97006.38;;;9.24;100.00
52927;BME280;40783;49.710;8.842;2023-03-14T04:49:18;97016.63;;;9.20;100.00
52927;BME280;40783;49.710;8.842;2023-03-14T04:51:43;97014.16;;;9.18;100.00
52927;BME280;40783;49.710;8.842;2023-03-14T04:54:08;97010.06;;;9.23;100.00
52927;BME280;40783;49.710;8.842;2023-03-14T04:56:33;97008.81;;;9.25;100.00
52927;BME280;40783;49.710;8.842;2023-03-14T04:59:01;97008.44;;;9.22;100.00
52927;BME280;40783;49.710;8.842;2023-03-14T05:01:26;96999.41;;;9.29;100.00
52927;BME280;40783;49.710;8.842;2023-03-14T05:03:54;96987.91;;;9.22;100.00
52927;BME280;40783;49.710;8.842;2023-03-14T05:06:19;96981.34;;;9.31;100.00
52927;BME280;40783;49.710;8.842;2023-03-14T05:08:44;96972.31;;;9.32;100.00
52927;BME280;40783;49.710;8.842;2023-03-14T05:11:10;96979.72;;;9.30;100.00
52927;BME280;40783;49.710;8.842;2023-03-14T05:13:36;96969.44;;;9.27;100.00
52927;BME280;40783;49.710;8.842;2023-03-14T05:16:05;96978.88;;;9.23;100.00
52927;BME280;40783;49.710;8.842;2023-03-14T05:18:30;96969.84;;;9.31;100.00
52927;BME280;40783;49.710;8.842;2023-03-14T05:20:58;96975.59;;;9.28;100.00
52927;BME280;40783;49.710;8.842;2023-03-14T05:23:25;96978.06;;;9.29;100.00
52927;BME280;40783;49.710;8.842;2023-03-14T05:25:50;96970.47;;;9.26;100.00
52927;BME280;40783;49.710;8.842;2023-03-14T05:28:16;96955.50;;;9.25;100.00
52927;BME280;40783;49.710;8.842;2023-03-14T05:30:41;96960.81;;;9.25;100.00
52927;BME280;40783;49.710;8.842;2023-03-14T05:33:06;96954.25;;;9.21;100.00
52927;BME280;40783;49.710;8.842;2023-03-14T05:35:33;96948.13;;;9.20;100.00
52927;BME280;40783;49.710;8.842;2023-03-14T05:37:58;96953.84;;;9.24;100.00
52927;BME280;40783;49.710;8.842;2023-03-14T05:40:24;96958.34;;;9.17;100.00
52927;BME280;40783;49.710;8.842;2023-03-14T05:42:51;96947.09;;;9.22;100.00
52927;BME280;40783;49.710;8.842;2023-03-14T05:45:17;96951.19;;;9.24;100.00
52927;BME280;40783;49.710;8.842;2023-03-14T05:47:42;96957.94;;;9.20;100.00
52927;BME280;40783;49.710;8.842;2023-03-14T05:50:10;96953.41;;;9.14;100.00
52927;BME280;40783;49.710;8.842;2023-03-14T05:52:35;96954.66;;;9.18;100.00
52927;BME280;40783;49.710;8.842;2023-03-14T05:55:01;96947.91;;;9.22;100.00
52927;BME280;40783;49.710;8.842;2023-03-14T05:57:29;96942.75;;;9.14;100.00
52927;BME280;40783;49.710;8.842;2023-03-14T05:59:54;96945.00;;;9.17;100.00
52927;BME280;40783;49.710;8.842;2023-03-14T06:02:19;96952.22;;;9.23;100.00
52927;BME280;40783;49.710;8.842;2023-03-14T06:04:47;96951.19;;;9.24;100.00
52927;BME280;40783;49.710;8.842;2023-03-14T06:07:14;96955.09;;;9.22;100.00
52927;BME280;40783;49.710;8.842;2023-03-14T06:09:39;96959.59;;;9.21;100.00
52927;BME280;40783;49.710;8.842;2023-03-14T06:12:05;96952.22;;;9.16;100.00
52927;BME280;40783;49.710;8.842;2023-03-14T06:14:33;96951.59;;;9.21;100.00
52927;BME280;40783;49.710;8.842;2023-03-14T06:16:58;96955.88;;;9.29;100.00
52927;BME280;40783;49.710;8.842;2023-03-14T06:19:24;96956.72;;;9.29;100.00
52927;BME280;40783;49.710;8.842;2023-03-14T06:21:49;96950.16;;;9.25;100.00
52927;BME280;40783;49.710;8.842;2023-03-14T06:24:14;96938.25;;;9.21;100.00
52927;BME280;40783;49.710;8.842;2023-03-14T06:26:42;96952.81;;;9.25;100.00
52927;BME280;40783;49.710;8.842;2023-03-14T06:29:07;96933.34;;;9.31;100.00
52927;BME280;40783;49.710;8.842;2023-03-14T06:31:33;96939.50;;;9.25;100.00
52927;BME280;40783;49.710;8.842;2023-03-14T06:33:58;96935.19;;;9.24;100.00
52927;BME280;40783;49.710;8.842;2023-03-14T06:36:25;96936.19;;;9.23;100.00
52927;BME280;40783;49.710;8.842;2023-03-14T06:38:52;96942.38;;;9.30;100.00
52927;BME280;40783;49.710;8.842;2023-03-14T06:41:18;96941.13;;;9.26;100.00
52927;BME280;40783;49.710;8.842;2023-03-14T06:43:48;96940.50;;;9.24;100.00
52927;BME280;40783;49.710;8.842;2023-03-14T06:46:18;96938.47;;;9.26;100.00
52927;BME280;40783;49.710;8.842;2023-03-14T06:48:46;96939.50;;;9.25;100.00
52927;BME280;40783;49.710;8.842;2023-03-14T06:51:11;96938.66;;;9.18;100.00
52927;BME280;40783;49.710;8.842;2023-03-14T06:53:38;96937.41;;;9.14;100.00
52927;BME280;40783;49.710;8.842;2023-03-14T06:56:04;96930.03;;;9.09;100.00
52927;BME280;40783;49.710;8.842;2023-03-14T06:58:31;96933.75;;;9.08;100.00
52927;BME280;40783;49.710;8.842;2023-03-14T07:00:56;96927.97;;;9.04;100.00
52927;BME280;40783;49.710;8.842;2023-03-14T07:03:24;96921.44;;;9.07;100.00
52927;BME280;40783;49.710;8.842;2023-03-14T07:05:49;96925.13;;;8.99;100.00
52927;BME280;40783;49.710;8.842;2023-03-14T07:08:17;96928.19;;;9.10;100.00
52927;BME280;40783;49.710;8.842;2023-03-14T07:10:45;96923.88;;;9.09;100.00
52927;BME280;40783;49.710;8.842;2023-03-14T07:13:10;96918.97;;;9.19;100.00
52927;BME280;40783;49.710;8.842;2023-03-14T07:15:35;96921.41;;;9.14;100.00
52927;BME280;40783;49.710;8.842;2023-03-14T07:18:00;96925.31;;;9.18;100.00
52927;BME280;40783;49.710;8.842;2023-03-14T07:20:26;96938.69;;;9.25;100.00
52927;BME280;40783;49.710;8.842;2023-03-14T07:22:51;96934.16;;;9.18;100.00
52927;BME280;40783;49.710;8.842;2023-03-14T07:25:19;96936.22;;;9.16;100.00
52927;BME280;40783;49.710;8.842;2023-03-14T07:27:46;96946.03;;;9.16;100.00
52927;BME280;40783;49.710;8.842;2023-03-14T07:30:12;96945.22;;;9.22;100.00
52927;BME280;40783;49.710;8.842;2023-03-14T07:32:38;96939.69;;;9.30;100.00
52927;BME280;40783;49.710;8.842;2023-03-14T07:35:03;96950.78;;;9.27;100.00
52927;BME280;40783;49.710;8.842;2023-03-14T07:37:29;96944.00;;;9.31;100.00
52927;BME280;40783;49.710;8.842;2023-03-14T07:39:54;96940.31;;;9.26;100.00
52927;BME280;40783;49.710;8.842;2023-03-14T07:42:19;96939.50;;;9.25;100.00
52927;BME280;40783;49.710;8.842;2023-03-14T07:44:47;96948.09;;;9.27;100.00
52927;BME280;40783;49.710;8.842;2023-03-14T07:47:12;96943.59;;;9.34;100.00
52927;BME280;40783;49.710;8.842;2023-03-14T07:49:40;96954.69;;;9.31;100.00
52927;BME280;40783;49.710;8.842;2023-03-14T07:52:05;96955.69;;;9.30;100.00
52927;BME280;40783;49.710;8.842;2023-03-14T07:54:30;96953.03;;;9.30;100.00
52927;BME280;40783;49.710;8.842;2023-03-14T07:56:55;96957.97;;;9.33;100.00
52927;BME280;40783;49.710;8.842;2023-03-14T07:59:20;96961.25;;;9.35;100.00
52927;BME280;40783;49.710;8.842;2023-03-14T08:01:46;96956.75;;;9.43;100.00
52927;BME280;40783;49.710;8.842;2023-03-14T08:04:13;96960.44;;;9.42;100.00
52927;BME280;40783;49.710;8.842;2023-03-14T08:06:38;96962.28;;;9.48;100.00
52927;BME280;40783;49.710;8.842;2023-03-14T08:09:04;96956.75;;;9.43;100.00
52927;BME280;40783;49.710;8.842;2023-03-14T08:11:29;96966.59;;;9.49;100.00
52927;BME280;40783;49.710;8.842;2023-03-14T08:13:54;96947.69;;;9.57;100.00
52927;BME280;40783;49.710;8.842;2023-03-14T08:16:20;96959.81;;;9.53;100.00
52927;BME280;40783;49.710;8.842;2023-03-14T08:18:46;96953.03;;;9.44;100.00
52927;BME280;40783;49.710;8.842;2023-03-14T08:21:11;96950.59;;;9.49;100.00
52927;BME280;40783;49.710;8.842;2023-03-14T08:23:37;96953.88;;;9.38;100.00
52927;BME280;40783;49.710;8.842;2023-03-14T08:26:02;96949.34;;;9.45;100.00
52927;BME280;40783;49.710;8.842;2023-03-14T08:28:28;96950.75;;;9.54;100.00
52927;BME280;40783;49.710;8.842;2023-03-14T08:30:58;96945.66;;;9.46;100.00
52927;BME280;40783;49.710;8.842;2023-03-14T08:33:23;96945.25;;;9.49;100.00
52927;BME280;40783;49.710;8.842;2023-03-14T08:35:51;96956.94;;;9.48;100.00
52927;BME280;40783;49.710;8.842;2023-03-14T08:38:16;96959.63;;;9.48;100.00
52927;BME280;40783;49.710;8.842;2023-03-14T08:40:42;96955.91;;;9.49;100.00
52927;BME280;40783;49.710;8.842;2023-03-14T08:43:09;96961.25;;;9.49;100.00
52927;BME280;40783;49.710;8.842;2023-03-14T08:45:34;96965.34;;;9.45;100.00
52927;BME280;40783;49.710;8.842;2023-03-14T08:47:59;96962.06;;;9.43;100.00
52927;BME280;40783;49.710;8.842;2023-03-14T08:50:24;96964.09;;;9.54;100.00
52927;BME280;40783;49.710;8.842;2023-03-14T08:52:50;96969.88;;;9.51;100.00
52927;BME280;40783;49.710;8.842;2023-03-14T08:55:15;96963.31;;;9.47;100.00
52927;BME280;40783;49.710;8.842;2023-03-14T08:57:42;96966.56;;;9.42;100.00
52927;BME280;40783;49.710;8.842;2023-03-14T09:00:10;96962.06;;;9.56;100.00
52927;BME280;40783;49.710;8.842;2023-03-14T09:02:39;96955.91;;;9.56;100.00
52927;BME280;40783;49.710;8.842;2023-03-14T09:05:04;96971.91;;;9.56;100.00
52927;BME280;40783;49.710;8.842;2023-03-14T09:07:30;96981.16;;;9.60;100.00
52927;BME280;40783;49.710;8.842;2023-03-14T09:09:55;96974.56;;;9.62;100.00
52927;BME280;40783;49.710;8.842;2023-03-14T09:12:20;96972.31;;;9.73;100.00
52927;BME280;40783;49.710;8.842;2023-03-14T09:14:45;96968.41;;;9.69;100.00
52927;BME280;40783;49.710;8.842;2023-03-14T09:17:11;96975.19;;;9.64;100.00
52927;BME280;40783;49.710;8.842;2023-03-14T09:19:36;96978.88;;;9.63;100.00
52927;BME280;40783;49.710;8.842;2023-03-14T09:22:01;96980.34;;;9.66;100.00
52927;BME280;40783;49.710;8.842;2023-03-14T09:24:27;96974.97;;;9.73;100.00
52927;BME280;40783;49.710;8.842;2023-03-14T09:26:52;96976.84;;;9.72;100.00
52927;BME280;40783;49.710;8.842;2023-03-14T09:29:21;96971.09;;;9.75;100.00
52927;BME280;40783;49.710;8.842;2023-03-14T09:31:46;96969.84;;;9.78;100.00
52927;BME280;40783;49.710;8.842;2023-03-14T09:34:12;96987.09;;;9.82;100.00
52927;BME280;40783;49.710;8.842;2023-03-14T09:36:37;96971.69;;;9.84;100.00
52927;BME280;40783;49.710;8.842;2023-03-14T09:39:06;96975.59;;;9.88;100.00
52927;BME280;40783;49.710;8.842;2023-03-14T09:41:36;96982.56;;;9.89;100.00
52927;BME280;40783;49.710;8.842;2023-03-14T09:44:08;96982.56;;;9.89;100.00
52927;BME280;40783;49.710;8.842;2023-03-14T09:46:35;96981.34;;;9.85;100.00
52927;BME280;40783;49.710;8.842;2023-03-14T09:49:02;96975.59;;;9.88;100.00
52927;BME280;40783;49.710;8.842;2023-03-14T09:51:28;96991.59;;;9.88;100.00
52927;BME280;40783;49.710;8.842;2023-03-14T09:53:56;96999.81;;;9.93;100.00
52927;BME280;40783;49.710;8.842;2023-03-14T09:56:23;96991.19;;;9.91;100.00
52927;BME280;40783;49.710;8.842;2023-03-14T09:58:55;96987.50;;;9.92;100.00
52927;BME280;40783;49.710;8.842;2023-03-14T10:01:22;96998.59;;;9.89;100.00
52927;BME280;40783;49.710;8.842;2023-03-14T10:03:49;96978.88;;;9.90;100.00
52927;BME280;40783;49.710;8.842;2023-03-14T10:06:17;96994.06;;;9.90;100.00
52927;BME280;40783;49.710;8.842;2023-03-14T10:08:43;96987.91;;;9.89;100.00
52927;BME280;40783;49.710;8.842;2023-03-14T10:11:15;96978.25;;;9.88;100.00
52927;BME280;40783;49.710;8.842;2023-03-14T10:14:02;96982.16;;;9.92;100.00
52927;BME280;40783;49.710;8.842;2023-03-14T10:16:29;96983.81;;;9.80;100.00
52927;BME280;40783;49.710;8.842;2023-03-14T10:18:59;96985.44;;;9.68;100.00
52927;BME280;40783;49.710;8.842;2023-03-14T10:21:26;96982.19;;;9.72;100.00
52927;BME280;40783;49.710;8.842;2023-03-14T10:23:52;96993.47;;;9.61;100.00
52927;BME280;40783;49.710;8.842;2023-03-14T10:26:19;96983.00;;;9.66;100.00
52927;BME280;40783;49.710;8.842;2023-03-14T10:28:51;96978.88;;;9.77;100.00
52927;BME280;40783;49.710;8.842;2023-03-14T10:31:24;96982.16;;;9.79;100.00
52927;BME280;40783;49.710;8.842;2023-03-14T10:34:02;96967.00;;;9.79;100.00
52927;BME280;40783;49.710;8.842;2023-03-14T10:36:29;96980.13;;;9.81;100.00
52927;BME280;40783;49.710;8.842;2023-03-14T10:39:15;96982.56;;;9.89;100.00
52927;BME280;40783;49.710;8.842;2023-03-14T10:41:47;96980.72;;;9.83;100.00
52927;BME280;40783;49.710;8.842;2023-03-14T10:44:13;96988.75;;;9.70;100.00
52927;BME280;40783;49.710;8.842;2023-03-14T10:46:41;96980.94;;;9.75;100.00
52927;BME280;40783;49.710;8.842;2023-03-14T10:49:06;96980.94;;;9.75;100.00
52927;BME280;40783;49.710;8.842;2023-03-14T10:51:32;96979.50;;;9.72;100.00
52927;BME280;40783;49.710;8.842;2023-03-14T10:54:30;96981.78;;;9.75;100.00
52927;BME280;40783;49.710;8.842;2023-03-14T10:56:58;96969.44;;;9.68;100.00
52927;BME280;40783;49.710;8.842;2023-03-14T10:59:24;96973.75;;;9.55;100.00
52927;BME280;40783;49.710;8.842;2023-03-14T11:07:04;96981.78;;;9.42;100.00
52927;BME280;40783;49.710;8.842;2023-03-14T11:15:15;96978.47;;;9.46;100.00
52927;BME280;40783;49.710;8.842;2023-03-14T11:23:15;96995.31;;;9.47;100.00
52927;BME280;40783;49.710;8.842;2023-03-14T11:28:18;96999.81;;;9.46;100.00
52927;BME280;40783;49.710;8.842;2023-03-14T11:33:15;96999.41;;;9.29;100.00
52927;BME280;40783;49.710;8.842;2023-03-14T11:40:53;97006.78;;;9.27;100.00
52927;BME280;40783;49.710;8.842;2023-03-14T11:43:28;97009.66;;;9.39;100.00
52927;BME280;40783;49.710;8.842;2023-03-14T11:51:40;97012.53;;;9.38;100.00
52927;BME280;40783;49.710;8.842;2023-03-14T11:56:39;97026.50;;;9.40;100.00
52927;BME280;40783;49.710;8.842;2023-03-14T11:59:16;97018.88;;;9.23;100.00
52927;BME280;40783;49.710;8.842;2023-03-14T12:06:57;97035.50;;;9.25;100.00
52927;BME280;40783;49.710;8.842;2023-03-14T12:09:26;97030.78;;;9.20;100.00
52927;BME280;40783;49.710;8.842;2023-03-14T12:12:02;97044.94;;;9.21;100.00
52927;BME280;40783;49.710;8.842;2023-03-14T12:14:32;97053.94;;;9.20;100.00
52927;BME280;40783;49.710;8.842;2023-03-14T12:17:41;97054.75;;;9.14;100.00
52927;BME280;40783;49.710;8.842;2023-03-14T12:19:47;97054.16;;;9.32;100.00
52927;BME280;40783;49.710;8.842;2023-03-14T12:22:32;97051.31;;;9.27;100.00
52927;BME280;40783;49.710;8.842;2023-03-14T12:25:05;97093.16;;;9.26;100.00
52927;BME280;40783;49.710;8.842;2023-03-14T12:27:42;97117.50;;;9.10;100.00
52927;BME280;40783;49.710;8.842;2023-03-14T12:35:34;97111.75;;;9.13;100.00
52927;BME280;40783;49.710;8.842;2023-03-14T12:37:59;97116.88;;;9.08;100.00
52927;BME280;40783;49.710;8.842;2023-03-14T12:40:31;97138.03;;;9.16;100.00
52927;BME280;40783;49.710;8.842;2023-03-14T12:42:58;97148.19;;;8.92;100.00
52927;BME280;40783;49.710;8.842;2023-03-14T12:45:33;97165.84;;;8.93;100.00
52927;BME280;40783;49.710;8.842;2023-03-14T12:48:09;97181.09;;;9.13;100.00
52927;BME280;40783;49.710;8.842;2023-03-14T12:50:40;97176.56;;;9.06;100.00
52927;BME280;40783;49.710;8.842;2023-03-14T12:55:55;97202.50;;;9.26;100.00
52927;BME280;40783;49.710;8.842;2023-03-14T13:12:30;97278.06;;;9.33;100.00
52927;BME280;40783;49.710;8.842;2023-03-14T13:15:01;97282.53;;;9.26;100.00
52927;BME280;40783;49.710;8.842;2023-03-14T13:17:31;97294.34;;;9.17;100.00
52927;BME280;40783;49.710;8.842;2023-03-14T13:26:21;97330.72;;;8.96;100.00
52927;BME280;40783;49.710;8.842;2023-03-14T13:31:36;97362.34;;;8.78;100.00
52927;BME280;40783;49.710;8.842;2023-03-14T13:34:04;97376.16;;;8.66;100.00
52927;BME280;40783;49.710;8.842;2023-03-14T13:36:30;97382.91;;;8.62;100.00
52927;BME280;40783;49.710;8.842;2023-03-14T13:38:58;97392.63;;;8.70;100.00
52927;BME280;40783;49.710;8.842;2023-03-14T13:41:24;97402.19;;;8.64;100.00
52927;BME280;40783;49.710;8.842;2023-03-14T13:43:50;97412.47;;;8.67;100.00
52927;BME280;40783;49.710;8.842;2023-03-14T13:46:16;97414.22;;;8.60;100.00
52927;BME280;40783;49.710;8.842;2023-03-14T13:49:06;97422.59;;;8.57;100.00
52927;BME280;40783;49.710;8.842;2023-03-14T13:51:32;97421.41;;;8.59;100.00
52927;BME280;40783;49.710;8.842;2023-03-14T13:53:58;97444.19;;;8.47;100.00
52927;BME280;40783;49.710;8.842;2023-03-14T13:56:25;97466.97;;;8.35;100.00
52927;BME280;40783;49.710;8.842;2023-03-14T13:58:51;97465.63;;;8.24;100.00
52927;BME280;40783;49.710;8.842;2023-03-14T14:01:18;97489.31;;;8.19;100.00
52927;BME280;40783;49.710;8.842;2023-03-14T14:03:45;97480.69;;;8.16;100.00
52927;BME280;40783;49.710;8.842;2023-03-14T14:06:16;97503.72;;;8.24;100.00
52927;BME280;40783;49.710;8.842;2023-03-14T14:08:44;97504.00;;;8.14;100.00
52927;BME280;40783;49.710;8.842;2023-03-14T14:11:10;97519.69;;;8.09;100.00
52927;BME280;40783;49.710;8.842;2023-03-14T14:13:42;97525.03;;;8.09;100.00
52927;BME280;40783;49.710;8.842;2023-03-14T14:16:07;97526.31;;;8.13;100.00
52927;BME280;40783;49.710;8.842;2023-03-14T14:18:33;97543.41;;;8.19;100.00
52927;BME280;40783;49.710;8.842;2023-03-14T14:20:59;97545.88;;;8.21;100.00